createdAt,value
2022-09-16T00:00:47.331Z,3.58
2022-09-16T00:03:16.488Z,3.85
2022-09-16T00:05:44.921Z,3.80
2022-09-16T00:08:12.095Z,4.00
2022-09-16T00:10:39.065Z,3.95
2022-09-16T00:13:06.194Z,3.85
2022-09-16T00:15:33.352Z,4.20
2022-09-16T00:18:00.427Z,4.07
2022-09-16T00:20:28.274Z,3.88
2022-09-16T00:22:55.232Z,3.97
2022-09-16T00:25:22.158Z,4.10
2022-09-16T00:27:49.693Z,3.83
2022-09-16T00:30:17.061Z,4.43
2022-09-16T00:32:44.822Z,4.03
2022-09-16T00:35:11.826Z,5.05
2022-09-16T00:37:38.833Z,3.90
2022-09-16T00:40:06.600Z,3.72
2022-09-16T00:42:38.836Z,4.60
2022-09-16T00:45:13.947Z,4.22
2022-09-16T00:47:45.290Z,3.90
2022-09-16T00:50:18.313Z,4.07
2022-09-16T00:52:45.776Z,4.57
2022-09-16T00:55:18.835Z,4.97
2022-09-16T00:57:47.425Z,4.35
2022-09-16T01:00:14.653Z,4.78
2022-09-16T01:02:43.952Z,4.50
2022-09-16T01:05:16.925Z,4.55
2022-09-16T01:07:45.563Z,4.07
2022-09-16T01:10:15.368Z,4.70
2022-09-16T01:12:49.699Z,4.35
2022-09-16T01:15:18.081Z,4.90
2022-09-16T01:18:20.160Z,4.40
2022-09-16T01:21:09.964Z,5.00
2022-09-16T01:24:03.984Z,4.22
2022-09-16T01:26:53.412Z,4.63
2022-09-16T01:29:50.394Z,5.30
2022-09-16T01:32:38.258Z,4.63
2022-09-16T01:35:29.625Z,4.82
2022-09-16T01:38:14.783Z,4.60
2022-09-16T01:41:19.636Z,4.75
2022-09-16T01:44:06.003Z,5.57
2022-09-16T01:46:45.516Z,4.60
2022-09-16T01:49:33.041Z,4.22
2022-09-16T01:52:20.175Z,4.68
2022-09-16T01:55:00.645Z,4.88
2022-09-16T01:57:55.206Z,4.82
2022-09-16T02:00:23.010Z,5.28
2022-09-16T02:03:05.463Z,4.15
2022-09-16T02:06:12.317Z,4.53
2022-09-16T02:09:01.933Z,5.25
2022-09-16T02:11:29.857Z,4.70
2022-09-16T02:14:06.395Z,5.07
2022-09-16T02:16:50.289Z,4.32
2022-09-16T02:19:24.811Z,4.10
2022-09-16T02:21:55.450Z,4.00
2022-09-16T02:24:24.124Z,4.07
2022-09-16T02:27:00.751Z,4.10
2022-09-16T02:29:40.362Z,4.28
2022-09-16T02:32:09.343Z,4.30
2022-09-16T02:34:42.169Z,4.18
2022-09-16T02:37:16.097Z,3.92
2022-09-16T02:39:47.116Z,5.65
2022-09-16T02:42:14.519Z,4.50
2022-09-16T02:44:41.488Z,4.45
2022-09-16T02:47:22.314Z,4.35
2022-09-16T02:50:04.203Z,3.60
2022-09-16T02:52:46.507Z,4.10
2022-09-16T02:55:16.273Z,3.75
2022-09-16T02:57:43.296Z,4.43
2022-09-16T03:00:10.837Z,3.97
2022-09-16T03:02:38.054Z,3.83
2022-09-16T03:05:05.971Z,4.18
2022-09-16T03:07:33.894Z,4.03
2022-09-16T03:10:01.051Z,3.60
2022-09-16T03:12:46.769Z,3.30
2022-09-16T03:15:49.129Z,3.28
2022-09-16T03:19:09.607Z,3.55
2022-09-16T03:22:16.262Z,3.33
2022-09-16T03:25:08.905Z,2.85
2022-09-16T03:28:17.011Z,3.17
2022-09-16T03:30:52.067Z,2.85
2022-09-16T03:33:48.488Z,3.05
2022-09-16T03:36:19.293Z,2.58
2022-09-16T03:38:48.531Z,3.05
2022-09-16T03:41:16.800Z,2.60
2022-09-16T03:43:54.459Z,2.97
2022-09-16T03:46:21.665Z,3.13
2022-09-16T03:48:48.596Z,3.15
2022-09-16T03:51:16.043Z,2.70
2022-09-16T03:53:42.919Z,2.60
2022-09-16T03:56:09.940Z,2.75
2022-09-16T03:58:37.114Z,2.90
2022-09-16T04:01:04.294Z,2.75
2022-09-16T04:03:33.406Z,3.00
2022-09-16T04:06:00.519Z,2.67
2022-09-16T04:08:27.687Z,3.13
2022-09-16T04:11:03.087Z,2.75
2022-09-16T04:13:30.891Z,2.50
2022-09-16T04:15:57.974Z,2.63
2022-09-16T04:18:25.397Z,2.67
2022-09-16T04:20:59.925Z,3.05
2022-09-16T04:23:28.068Z,3.07
2022-09-16T04:25:59.963Z,3.03
2022-09-16T04:28:28.103Z,2.50
2022-09-16T04:30:55.110Z,3.05
2022-09-16T04:33:22.226Z,2.95
2022-09-16T04:35:49.119Z,2.40
2022-09-16T04:38:16.061Z,2.83
2022-09-16T04:40:43.075Z,2.88
2022-09-16T04:43:10.168Z,2.53
2022-09-16T04:45:37.188Z,2.90
2022-09-16T04:48:04.286Z,2.53
2022-09-16T04:50:31.300Z,2.67
2022-09-16T04:52:58.327Z,3.00
2022-09-16T04:55:25.242Z,3.17
2022-09-16T04:57:52.507Z,3.30
2022-09-16T05:00:19.599Z,3.17
2022-09-16T05:02:46.791Z,3.03
2022-09-16T05:05:13.901Z,3.58
2022-09-16T05:07:40.906Z,2.78
2022-09-16T05:10:08.498Z,3.10
2022-09-16T05:12:35.490Z,3.30
2022-09-16T05:15:02.491Z,3.00
2022-09-16T05:17:49.934Z,3.72
2022-09-16T05:20:17.904Z,4.20
2022-09-16T05:22:45.024Z,3.92
2022-09-16T05:25:12.287Z,3.70
2022-09-16T05:27:39.254Z,4.32
2022-09-16T05:30:06.712Z,4.32
2022-09-16T05:32:33.663Z,4.38
2022-09-16T05:35:00.604Z,5.25
2022-09-16T05:37:27.761Z,4.68
2022-09-16T05:39:55.516Z,5.03
2022-09-16T05:42:22.485Z,4.95
2022-09-16T05:44:49.460Z,4.78
2022-09-16T05:47:16.435Z,5.40
2022-09-16T05:49:43.343Z,6.68
2022-09-16T05:52:10.372Z,7.47
2022-09-16T05:54:37.423Z,6.78
2022-09-16T05:57:07.245Z,5.47
2022-09-16T05:59:34.541Z,5.10
2022-09-16T06:02:01.591Z,4.90
2022-09-16T06:04:28.579Z,5.55
2022-09-16T06:06:55.581Z,4.97
2022-09-16T06:09:24.471Z,4.65
2022-09-16T06:11:58.046Z,5.10
2022-09-16T06:14:28.561Z,4.90
2022-09-16T06:16:55.613Z,5.15
2022-09-16T06:19:22.640Z,5.00
2022-09-16T06:21:49.910Z,5.47
2022-09-16T06:24:17.941Z,4.53
2022-09-16T06:26:46.083Z,5.05
2022-09-16T06:29:13.928Z,4.95
2022-09-16T06:31:41.105Z,4.70
2022-09-16T06:34:12.907Z,4.68
2022-09-16T06:36:44.662Z,4.82
2022-09-16T06:39:14.411Z,7.05
2022-09-16T06:41:41.527Z,6.28
2022-09-16T06:44:08.649Z,8.07
2022-09-16T06:46:35.644Z,8.32
2022-09-16T06:49:05.821Z,8.13
2022-09-16T06:51:35.813Z,10.88
2022-09-16T06:54:05.447Z,8.88
2022-09-16T06:56:35.968Z,9.23
2022-09-16T06:59:03.615Z,9.52
2022-09-16T07:01:31.709Z,9.63
2022-09-16T07:04:02.256Z,10.35
2022-09-16T07:07:04.781Z,9.85
2022-09-16T07:09:17.995Z,9.65
2022-09-16T07:11:44.998Z,10.40
2022-09-16T07:14:12.391Z,9.90
2022-09-16T07:16:39.619Z,10.05
2022-09-16T07:19:06.631Z,9.32
2022-09-16T07:21:33.681Z,9.23
2022-09-16T07:24:02.535Z,8.98
2022-09-16T07:26:35.029Z,8.73
2022-09-16T07:29:04.671Z,9.93
2022-09-16T07:31:34.192Z,9.30
2022-09-16T07:34:04.351Z,9.13
2022-09-16T07:36:35.016Z,8.80
2022-09-16T07:39:03.119Z,9.73
2022-09-16T07:41:35.330Z,9.88
2022-09-16T07:44:03.368Z,11.65
2022-09-16T07:46:33.005Z,9.73
2022-09-16T07:49:02.022Z,9.52
2022-09-16T07:51:30.205Z,8.98
2022-09-16T07:53:59.636Z,9.43
2022-09-16T07:56:29.198Z,9.07
2022-09-16T07:58:57.334Z,9.05
2022-09-16T08:01:25.404Z,9.57
2022-09-16T08:03:52.877Z,9.98
2022-09-16T08:06:22.765Z,9.75
2022-09-16T08:08:53.467Z,9.95
2022-09-16T08:11:21.451Z,10.00
2022-09-16T08:13:48.992Z,9.80
2022-09-16T08:16:21.250Z,9.98
2022-09-16T08:18:50.798Z,10.32
2022-09-16T08:21:26.957Z,11.02
2022-09-16T08:23:55.671Z,10.48
2022-09-16T08:26:23.261Z,10.18
2022-09-16T08:29:07.760Z,9.65
2022-09-16T08:31:36.945Z,10.60
2022-09-16T08:34:04.306Z,10.77
2022-09-16T08:36:33.206Z,10.00
2022-09-16T08:39:00.712Z,10.32
2022-09-16T08:42:04.343Z,10.15
2022-09-16T08:45:07.906Z,10.43
2022-09-16T08:48:08.097Z,11.90
2022-09-16T08:50:39.632Z,10.15
2022-09-16T08:53:29.663Z,11.40
2022-09-16T08:55:56.695Z,10.90
2022-09-16T08:58:29.747Z,12.57
2022-09-16T09:01:20.382Z,11.57
2022-09-16T09:03:48.991Z,12.38
2022-09-16T09:06:40.945Z,12.27
2022-09-16T09:09:25.628Z,13.00
2022-09-16T09:11:56.746Z,12.70
2022-09-16T09:14:48.506Z,12.15
2022-09-16T09:17:48.661Z,12.88
2022-09-16T09:20:41.429Z,13.23
2022-09-16T09:23:45.342Z,12.18
2022-09-16T09:26:42.084Z,13.82
2022-09-16T09:29:29.934Z,13.00
2022-09-16T09:32:20.880Z,13.75
2022-09-16T09:34:53.704Z,12.68
2022-09-16T09:37:45.974Z,12.52
2022-09-16T09:40:34.826Z,11.57
2022-09-16T09:43:23.355Z,12.13
2022-09-16T09:46:15.235Z,12.93
2022-09-16T09:48:48.088Z,13.77
2022-09-16T09:51:30.816Z,13.32
2022-09-16T09:54:03.241Z,12.13
2022-09-16T09:56:37.148Z,12.80
2022-09-16T09:59:31.827Z,13.30
2022-09-16T10:02:01.873Z,14.18
2022-09-16T10:04:38.026Z,14.30
2022-09-16T10:07:06.531Z,13.23
2022-09-16T10:09:35.953Z,14.80
2022-09-16T10:12:04.588Z,12.15
2022-09-16T10:14:37.513Z,13.32
2022-09-16T10:17:16.810Z,12.55
2022-09-16T10:20:01.638Z,10.95
2022-09-16T10:25:01.846Z,12.77
2022-09-16T10:27:34.211Z,12.43
2022-09-16T10:30:07.569Z,56.78
2022-09-16T10:32:56.346Z,12.75
2022-09-16T10:35:26.519Z,13.45
2022-09-16T10:38:16.702Z,13.52
2022-09-16T10:40:53.418Z,14.15
2022-09-16T10:43:21.967Z,13.55
2022-09-16T10:45:52.676Z,13.52
2022-09-16T10:48:23.507Z,12.35
2022-09-16T10:50:53.800Z,13.30
2022-09-16T10:53:39.211Z,15.88
2022-09-16T10:56:18.487Z,13.70
2022-09-16T10:58:45.596Z,11.55
2022-09-16T11:01:27.938Z,14.00
2022-09-16T11:04:02.014Z,11.80
2022-09-16T11:06:34.655Z,11.55
2022-09-16T11:09:23.078Z,11.00
2022-09-16T11:12:01.660Z,11.27
2022-09-16T11:14:46.998Z,12.40
2022-09-16T11:17:51.775Z,10.52
2022-09-16T11:20:21.912Z,8.80
2022-09-16T11:23:04.250Z,8.00
2022-09-16T11:25:54.394Z,9.10
2022-09-16T11:28:38.156Z,9.00
2022-09-16T11:31:36.364Z,9.63
2022-09-16T11:34:24.138Z,7.07
2022-09-16T11:37:13.649Z,7.32
2022-09-16T11:40:07.242Z,8.02
2022-09-16T11:42:46.747Z,8.82
2022-09-16T11:45:43.092Z,8.73
2022-09-16T11:48:47.888Z,8.25
2022-09-16T11:51:33.047Z,8.40
2022-09-16T11:54:38.992Z,9.02
2022-09-16T11:57:15.016Z,7.78
2022-09-16T11:59:51.903Z,7.65
2022-09-16T12:02:36.620Z,7.70
2022-09-16T12:05:13.330Z,7.00
2022-09-16T12:07:45.344Z,6.55
2022-09-16T12:10:54.609Z,7.15
2022-09-16T12:13:35.072Z,5.60
2022-09-16T12:16:13.656Z,5.55
2022-09-16T12:18:49.651Z,5.50
2022-09-16T12:21:21.101Z,4.97
2022-09-16T12:24:15.258Z,5.88
2022-09-16T12:26:56.525Z,4.75
2022-09-16T12:29:48.480Z,5.97
2022-09-16T12:32:22.981Z,4.43
2022-09-16T12:34:55.937Z,5.93
2022-09-16T12:37:44.799Z,4.88
2022-09-16T12:40:20.874Z,4.70
2022-09-16T12:43:13.667Z,4.70
2022-09-16T12:46:28.312Z,5.35
2022-09-16T12:49:13.479Z,3.38
2022-09-16T12:52:09.149Z,4.78
2022-09-16T12:55:06.532Z,4.47
2022-09-16T12:57:58.263Z,4.35
2022-09-16T13:00:37.804Z,3.97
2022-09-16T13:03:17.915Z,2.50
2022-09-16T13:05:48.051Z,3.17
2022-09-16T13:08:30.639Z,3.08
2022-09-16T13:12:07.131Z,3.05
2022-09-16T13:14:03.600Z,2.50
2022-09-16T13:16:36.445Z,3.25
2022-09-16T13:19:38.846Z,2.85
2022-09-16T13:22:18.497Z,3.17
2022-09-16T13:25:04.652Z,3.40
2022-09-16T13:27:36.939Z,3.10
2022-09-16T13:30:11.436Z,3.53
2022-09-16T13:32:38.573Z,2.90
2022-09-16T13:35:23.358Z,2.75
2022-09-16T13:37:57.719Z,3.05
2022-09-16T13:40:27.885Z,2.90
2022-09-16T13:43:10.160Z,2.60
2022-09-16T13:45:43.030Z,3.03
2022-09-16T13:48:16.746Z,2.50
2022-09-16T13:50:49.243Z,2.80
2022-09-16T13:53:36.665Z,2.53
2022-09-16T13:56:21.366Z,2.60
2022-09-16T13:59:36.784Z,2.88
2022-09-16T14:02:19.588Z,2.63
2022-09-16T14:05:09.548Z,2.88
2022-09-16T14:08:07.451Z,2.88
2022-09-16T14:10:52.776Z,2.40
2022-09-16T14:13:22.361Z,2.58
2022-09-16T14:16:15.612Z,2.42
2022-09-16T14:18:53.249Z,2.40
2022-09-16T14:21:23.534Z,2.40
2022-09-16T14:23:50.783Z,2.60
2022-09-16T14:26:20.583Z,2.53
2022-09-16T14:28:47.986Z,2.78
2022-09-16T14:31:29.518Z,3.30
2022-09-16T14:34:02.033Z,2.72
2022-09-16T14:36:35.053Z,2.67
2022-09-16T14:39:08.321Z,2.70
2022-09-16T14:41:48.790Z,2.70
2022-09-16T14:44:18.907Z,3.03
2022-09-16T14:47:09.047Z,2.80
2022-09-16T14:49:40.292Z,3.00
2022-09-16T14:52:21.164Z,2.70
2022-09-16T14:54:48.948Z,2.63
2022-09-16T14:57:22.457Z,2.90
2022-09-16T14:59:52.266Z,3.10
2022-09-16T15:02:41.076Z,2.60
2022-09-16T15:05:07.996Z,3.25
2022-09-16T15:07:50.870Z,2.95
2022-09-16T15:10:39.687Z,2.97
2022-09-16T15:13:18.175Z,2.80
2022-09-16T15:15:49.398Z,3.03
2022-09-16T15:18:24.313Z,2.90
2022-09-16T15:23:29.298Z,2.90
2022-09-16T15:25:59.807Z,3.15
2022-09-16T15:28:26.847Z,3.13
2022-09-16T15:30:55.964Z,2.88
2022-09-16T15:33:35.459Z,3.03
2022-09-16T15:36:04.220Z,3.33
2022-09-16T15:38:31.745Z,3.17
2022-09-16T15:41:10.800Z,2.92
2022-09-16T15:43:45.172Z,3.17
2022-09-16T15:46:23.340Z,3.22
2022-09-16T15:48:55.735Z,2.97
2022-09-16T15:51:45.217Z,2.90
2022-09-16T15:54:26.683Z,3.28
2022-09-16T15:57:02.136Z,2.60
2022-09-16T15:59:39.225Z,3.40
2022-09-16T16:02:30.377Z,3.20
2022-09-16T16:05:20.150Z,2.85
2022-09-16T16:07:52.796Z,2.78
2022-09-16T16:10:21.604Z,3.88
2022-09-16T16:12:49.905Z,2.55
2022-09-16T16:15:19.701Z,3.40
2022-09-16T16:17:47.875Z,3.15
2022-09-16T16:20:16.035Z,3.25
2022-09-16T16:22:46.663Z,2.92
2022-09-16T16:25:14.111Z,3.13
2022-09-16T16:27:41.206Z,2.83
2022-09-16T16:30:09.032Z,3.13
2022-09-16T16:32:38.499Z,3.70
2022-09-16T16:35:06.286Z,2.97
2022-09-16T16:37:45.852Z,3.10
2022-09-16T16:40:14.831Z,3.10
2022-09-16T16:42:43.536Z,3.65
2022-09-16T16:45:13.215Z,2.72
2022-09-16T16:47:40.364Z,3.13
2022-09-16T16:50:07.570Z,3.13
2022-09-16T16:52:34.512Z,3.38
2022-09-16T16:55:01.465Z,3.17
2022-09-16T16:57:28.432Z,3.10
2022-09-16T16:59:55.484Z,3.05
2022-09-16T17:02:22.687Z,3.20
2022-09-16T17:04:50.771Z,3.08
2022-09-16T17:07:26.519Z,3.13
2022-09-16T17:09:54.955Z,3.65
2022-09-16T17:12:22.152Z,3.42
2022-09-16T17:14:49.076Z,3.50
2022-09-16T17:17:15.998Z,3.25
2022-09-16T17:19:42.945Z,3.42
2022-09-16T17:22:10.633Z,3.42
2022-09-16T17:24:37.639Z,3.20
2022-09-16T17:27:04.752Z,3.20
2022-09-16T17:29:31.840Z,3.75
2022-09-16T17:32:02.415Z,2.72
2022-09-16T17:34:30.213Z,2.75
2022-09-16T17:36:58.296Z,2.15
2022-09-16T17:39:25.858Z,2.42
2022-09-16T17:41:54.524Z,2.38
2022-09-16T17:44:22.082Z,2.38
2022-09-16T17:46:49.080Z,2.50
2022-09-16T17:49:24.260Z,7.90
2022-09-16T17:51:52.448Z,3.08
2022-09-16T17:54:20.338Z,2.70
2022-09-16T17:56:47.312Z,2.65
2022-09-16T17:59:17.751Z,2.88
2022-09-16T18:01:44.961Z,2.35
2022-09-16T18:04:12.594Z,2.80
2022-09-16T18:06:42.361Z,2.05
2022-09-16T18:09:09.805Z,2.15
2022-09-16T18:11:38.099Z,2.28
2022-09-16T18:14:07.928Z,2.67
2022-09-16T18:16:34.977Z,2.30
2022-09-16T18:19:03.982Z,2.50
2022-09-16T18:21:31.533Z,2.22
2022-09-16T18:24:02.363Z,2.50
2022-09-16T18:26:30.597Z,2.20
2022-09-16T18:29:09.689Z,2.60
2022-09-16T18:31:43.659Z,2.10
2022-09-16T18:34:11.276Z,2.25
2022-09-16T18:36:39.396Z,2.30
2022-09-16T18:39:07.748Z,2.25
2022-09-16T18:41:38.085Z,2.20
2022-09-16T18:44:13.272Z,1.92
2022-09-16T18:49:07.617Z,1.90
2022-09-16T18:51:37.323Z,2.00
2022-09-16T18:54:13.127Z,2.47
2022-09-16T18:56:41.118Z,2.10
2022-09-16T18:59:21.958Z,2.13
2022-09-16T19:01:51.187Z,2.20
2022-09-16T19:04:21.154Z,2.20
2022-09-16T19:06:50.329Z,1.90
2022-09-16T19:09:19.446Z,2.75
2022-09-16T19:11:47.608Z,2.17
2022-09-16T19:14:15.341Z,2.05
2022-09-16T19:16:45.112Z,2.03
2022-09-16T19:19:14.894Z,2.60
2022-09-16T19:21:42.922Z,2.47
2022-09-16T19:24:17.819Z,4.43
2022-09-16T19:26:46.156Z,3.33
2022-09-16T19:29:14.582Z,2.55
2022-09-16T19:31:43.893Z,2.65
2022-09-16T19:34:12.190Z,2.15
2022-09-16T19:36:40.187Z,2.65
2022-09-16T19:39:08.402Z,2.20
2022-09-16T19:41:37.451Z,2.17
2022-09-16T19:44:07.063Z,2.13
2022-09-16T19:46:36.405Z,2.22
2022-09-16T19:49:05.292Z,1.98
2022-09-16T19:51:33.331Z,1.92
2022-09-16T19:54:01.243Z,2.47
2022-09-16T19:56:31.516Z,2.20
2022-09-16T19:58:58.886Z,2.20
2022-09-16T20:01:33.758Z,2.00
2022-09-16T20:04:02.632Z,2.33
2022-09-16T20:06:34.900Z,1.95
2022-09-16T20:09:04.345Z,2.25
2022-09-16T20:11:33.974Z,1.83
2022-09-16T20:14:04.024Z,2.20
2022-09-16T20:16:35.802Z,2.10
2022-09-16T20:19:05.778Z,2.15
2022-09-16T20:21:34.966Z,2.08
2022-09-16T20:24:05.640Z,2.55
2022-09-16T20:26:34.147Z,2.55
2022-09-16T20:29:01.734Z,2.60
2022-09-16T20:31:31.647Z,2.33
2022-09-16T20:33:59.394Z,2.40
2022-09-16T20:36:27.958Z,2.15
2022-09-16T20:38:54.909Z,2.45
2022-09-16T20:41:23.186Z,2.25
2022-09-16T20:43:50.841Z,2.70
2022-09-16T20:46:21.661Z,2.28
2022-09-16T20:48:49.272Z,2.58
2022-09-16T20:51:19.074Z,2.55
2022-09-16T20:53:54.901Z,2.50
2022-09-16T20:56:22.247Z,2.47
2022-09-16T20:58:49.746Z,2.50
2022-09-16T21:01:22.797Z,2.20
2022-09-16T21:04:02.107Z,2.85
2022-09-16T21:06:29.517Z,2.13
2022-09-16T21:08:59.597Z,2.75
2022-09-16T21:11:29.501Z,2.65
2022-09-16T21:14:00.703Z,2.05
2022-09-16T21:16:31.774Z,2.53
2022-09-16T21:19:00.645Z,2.40
2022-09-16T21:21:28.851Z,2.75
2022-09-16T21:23:58.186Z,2.28
2022-09-16T21:26:33.467Z,2.58
2022-09-16T21:29:03.855Z,2.63
2022-09-16T21:31:38.038Z,2.45
2022-09-16T21:34:07.211Z,2.22
2022-09-16T21:36:35.417Z,2.55
2022-09-16T21:39:02.806Z,2.33
2022-09-16T21:41:30.132Z,2.42
2022-09-16T21:43:57.707Z,2.42
2022-09-16T21:46:31.840Z,2.38
2022-09-16T21:49:02.000Z,2.38
2022-09-16T21:51:37.079Z,2.15
2022-09-16T21:54:07.776Z,2.13
2022-09-16T21:56:37.532Z,2.40
2022-09-16T21:59:04.710Z,2.35
2022-09-16T22:01:32.108Z,2.35
2022-09-16T22:04:05.356Z,2.30
2022-09-16T22:06:33.511Z,2.60
2022-09-16T22:09:02.554Z,2.13
2022-09-16T22:11:32.624Z,2.28
2022-09-16T22:14:00.691Z,2.38
2022-09-16T22:16:30.828Z,2.30
2022-09-16T22:19:01.645Z,2.05
2022-09-16T22:21:31.460Z,2.47
2022-09-16T22:23:59.819Z,2.50
2022-09-16T22:26:28.288Z,2.38
2022-09-16T22:28:55.806Z,2.63
2022-09-16T22:31:25.395Z,2.42
2022-09-16T22:33:54.236Z,2.47
2022-09-16T22:36:24.114Z,2.45
2022-09-16T22:38:53.376Z,2.40
2022-09-16T22:41:20.927Z,2.40
2022-09-16T22:43:49.559Z,2.40
2022-09-16T22:46:19.102Z,2.55
2022-09-16T22:48:47.090Z,2.13
2022-09-16T22:51:15.807Z,2.60
2022-09-16T22:53:43.854Z,2.58
2022-09-16T22:56:17.922Z,1.98
2022-09-16T22:58:45.758Z,2.33
2022-09-16T23:01:18.563Z,2.17
2022-09-16T23:03:47.025Z,2.00
2022-09-16T23:06:15.565Z,2.38
2022-09-16T23:08:47.442Z,2.30
2022-09-16T23:11:17.167Z,2.22
2022-09-16T23:13:45.338Z,2.22
2022-09-16T23:16:15.959Z,2.42
2022-09-16T23:18:44.868Z,2.50
2022-09-16T23:21:14.567Z,2.10
2022-09-16T23:23:45.660Z,2.10
2022-09-16T23:26:24.092Z,2.40
2022-09-16T23:28:53.435Z,2.20
2022-09-16T23:31:22.997Z,2.53
2022-09-16T23:33:50.402Z,2.30
2022-09-16T23:36:18.260Z,2.80
2022-09-16T23:38:48.531Z,2.35
2022-09-16T23:41:19.836Z,2.28
2022-09-16T23:43:48.153Z,2.38
2022-09-16T23:46:17.650Z,2.45
2022-09-16T23:48:45.296Z,2.53
2022-09-16T23:51:13.179Z,2.63
2022-09-16T23:53:42.369Z,2.30
2022-09-16T23:56:11.544Z,2.40
2022-09-16T23:58:39.824Z,2.60
